Time;durP1;ratioP1;P1;durP2;ratioP2;P2;SDS_P1;SDS_P2;PMS_P1;PMS_P2;Temp;Humidity;BMP_temperature;BMP_pressure;BME280_temperature;BME280_humidity;BME280_pressure;Samples;Min_cycle;Max_cycle;Signal;HPM_P1;HPM_P2
2021/10/28 00:14:31;;;;;;;9.57;5.03;;;;;;;17.17;83.26;101520.25;4950735;28;20043;-73
2021/10/28 00:17:00;;;;;;;15.25;6.55;;;;;;;17.20;83.15;101513.09;4950745;28;20566;-72
2021/10/28 00:19:27;;;;;;;15.82;6.20;;;;;;;17.21;83.03;101506.88;4950686;28;20046;-73
2021/10/28 00:21:56;;;;;;;10.25;5.30;;;;;;;17.21;82.92;101512.22;4950362;28;20077;-73
2021/10/28 00:24:25;;;;;;;14.00;6.13;;;;;;;17.24;82.83;101503.34;4950753;28;20042;-72
2021/10/28 00:26:53;;;;;;;14.75;5.90;;;;;;;17.25;82.74;101506.03;4951098;28;20047;-72
2021/10/28 00:29:23;;;;;;;12.27;5.60;;;;;;;17.29;82.55;101507.78;4951194;28;20481;-73
2021/10/28 00:31:51;;;;;;;11.30;5.25;;;;;;;17.34;82.34;101507.78;4950890;28;20547;-72
2021/10/28 00:34:19;;;;;;;15.05;5.38;;;;;;;17.36;82.03;101508.69;4951077;28;20066;-73
2021/10/28 00:36:49;;;;;;;12.82;5.22;;;;;;;17.38;81.95;101509.56;4950716;28;20106;-72
2021/10/28 00:39:18;;;;;;;11.48;5.10;;;;;;;17.36;81.91;101509.56;4950681;28;20063;-72
2021/10/28 00:41:48;;;;;;;11.52;5.18;;;;;;;17.37;81.92;101503.34;4950763;28;20051;-72
2021/10/28 00:44:15;;;;;;;14.38;6.30;;;;;;;17.37;81.89;101508.69;4950415;28;20054;-72
2021/10/28 00:46:43;;;;;;;11.23;5.72;;;;;;;17.34;82.03;101511.34;4950953;28;20054;-72
2021/10/28 00:49:12;;;;;;;11.05;5.82;;;;;;;17.36;82.03;101509.56;4950262;28;20047;-73
2021/10/28 00:51:41;;;;;;;10.23;5.20;;;;;;;17.40;81.86;101507.78;4950058;28;20048;-72
2021/10/28 00:54:13;;;;;;;10.90;5.53;;;;;;;17.45;81.65;101506.91;4950368;28;20046;-72
2021/10/28 00:56:43;;;;;;;11.18;5.22;;;;;;;17.50;81.39;101496.22;4949819;28;20532;-72
2021/10/28 00:59:13;;;;;;;11.82;5.55;;;;;;;17.56;81.39;101503.31;4950306;28;20047;-72
2021/10/28 01:01:41;;;;;;;12.60;5.55;;;;;;;17.53;81.45;101489.06;4949751;28;20047;-72
2021/10/28 01:04:09;;;;;;;8.63;5.38;;;;;;;17.56;81.26;101493.53;4950178;28;20039;-72
2021/10/28 01:06:37;;;;;;;14.75;5.38;;;;;;;17.50;81.36;101496.22;4950056;28;20056;-72
2021/10/28 01:09:05;;;;;;;8.98;5.32;;;;;;;17.45;81.46;101485.56;4950076;28;20413;-72
2021/10/28 01:11:33;;;;;;;9.90;5.20;;;;;;;17.45;81.48;101488.22;4949707;28;20043;-72
2021/10/28 01:14:01;;;;;;;12.88;5.55;;;;;;;17.44;81.49;101482.88;4950687;28;20501;-72
2021/10/28 01:16:31;;;;;;;12.77;5.68;;;;;;;17.44;81.54;101477.53;4949405;28;20050;-72
2021/10/28 01:19:00;;;;;;;8.50;5.15;;;;;;;17.47;81.39;101475.75;4950050;28;20054;-72
2021/10/28 01:21:29;;;;;;;12.18;5.78;;;;;;;17.53;81.42;101475.72;4950014;28;20108;-71
2021/10/28 01:23:56;;;;;;;10.70;5.95;;;;;;;17.57;81.27;101468.63;4949949;28;20050;-72
2021/10/28 01:26:24;;;;;;;14.20;5.68;;;;;;;17.60;81.15;101459.69;4949591;28;20039;-73
2021/10/28 01:28:55;;;;;;;10.70;5.30;;;;;;;17.59;81.30;101469.47;4950449;28;20496;-71
2021/10/28 01:31:25;;;;;;;11.63;5.60;;;;;;;17.59;81.06;101464.16;4949831;28;20039;-71
2021/10/28 01:33:54;;;;;;;14.23;5.68;;;;;;;17.58;81.09;101467.72;4948404;28;20043;-70
2021/10/28 01:36:22;;;;;;;14.20;6.65;;;;;;;17.60;81.14;101463.25;4949723;28;20093;-71
2021/10/28 01:38:52;;;;;;;14.18;5.95;;;;;;;17.62;81.23;101456.19;4949202;28;20043;-70
2021/10/28 01:41:20;;;;;;;11.45;5.80;;;;;;;17.64;81.28;101454.41;4949956;28;20051;-70
2021/10/28 01:43:48;;;;;;;11.98;5.55;;;;;;;17.63;81.45;101451.72;4950381;28;20819;-72
2021/10/28 01:46:15;;;;;;;10.52;5.75;;;;;;;17.66;81.35;101460.59;4947916;28;20054;-72
2021/10/28 01:48:43;;;;;;;15.25;5.80;;;;;;;17.63;81.62;101451.72;4947744;28;20413;-72
2021/10/28 01:51:13;;;;;;;12.63;5.40;;;;;;;17.60;81.84;101454.34;4947303;28;20038;-72
2021/10/28 01:53:43;;;;;;;10.88;5.45;;;;;;;17.52;82.16;101457.06;4929999;29;20055;-72
2021/10/28 01:56:12;;;;;;;10.10;4.85;;;;;;;17.47;82.29;101457.06;4947026;28;20039;-72
2021/10/28 01:58:39;;;;;;;12.48;5.57;;;;;;;17.45;82.40;101460.63;4948092;28;20520;-72
2021/10/28 02:01:08;;;;;;;12.40;5.15;;;;;;;17.47;82.42;101462.38;4947289;28;20048;-72
2021/10/28 02:03:36;;;;;;;11.35;5.90;;;;;;;17.51;82.18;101458.84;4949943;28;20059;-72
2021/10/28 02:06:04;;;;;;;12.13;5.70;;;;;;;17.58;81.99;101461.50;4949722;28;20051;-72
2021/10/28 02:08:31;;;;;;;10.40;5.90;;;;;;;17.63;81.94;101459.75;4948828;28;20070;-72
2021/10/28 02:10:59;;;;;;;11.05;5.47;;;;;;;17.65;81.82;101461.53;4948956;28;20054;-72
2021/10/28 02:13:28;;;;;;;12.95;5.82;;;;;;;17.63;81.82;101455.28;4930648;29;20044;-72
2021/10/28 02:15:55;;;;;;;10.65;6.03;;;;;;;17.62;81.89;101464.19;4947811;28;20463;-72
2021/10/28 02:18:24;;;;;;;13.57;5.38;;;;;;;17.67;81.78;101461.50;4949567;28;20051;-72
2021/10/28 02:20:53;;;;;;;12.88;6.07;;;;;;;17.70;81.83;101451.72;4949379;28;20035;-72
2021/10/28 02:23:21;;;;;;;12.30;5.45;;;;;;;17.66;81.91;101457.94;4947373;28;20165;-72
2021/10/28 02:25:48;;;;;;;13.88;5.75;;;;;;;17.66;82.06;101457.94;4948809;28;20058;-72
2021/10/28 02:28:16;;;;;;;11.93;6.43;;;;;;;17.66;82.18;101459.72;4949281;28;20051;-73
2021/10/28 02:30:45;;;;;;;13.20;5.50;;;;;;;17.71;82.29;101455.28;4948704;28;20417;-72
2021/10/28 02:33:12;;;;;;;11.48;6.28;;;;;;;17.75;82.01;101454.38;4948990;28;20043;-72
2021/10/28 02:35:40;;;;;;;13.38;5.18;;;;;;;17.75;81.65;101457.94;4948099;28;20058;-73
2021/10/28 02:38:07;;;;;;;16.30;6.32;;;;;;;17.73;81.52;101456.13;4949708;28;20062;-72
2021/10/28 02:40:34;;;;;;;9.82;5.68;;;;;;;17.74;81.66;101455.25;4948526;28;20505;-72
2021/10/28 02:43:02;;;;;;;12.55;5.40;;;;;;;17.76;81.55;101450.81;4949198;28;20119;-72
2021/10/28 02:45:29;;;;;;;15.43;5.30;;;;;;;17.78;81.36;101454.38;4949002;28;20039;-72
2021/10/28 02:47:58;;;;;;;13.48;5.70;;;;;;;17.78;81.40;101451.69;4949393;28;20050;-72
2021/10/28 02:50:26;;;;;;;14.60;5.90;;;;;;;17.75;81.19;101455.25;4948508;28;20036;-72
2021/10/28 02:52:53;;;;;;;13.30;5.72;;;;;;;17.66;81.43;101457.94;4948783;28;20542;-73
2021/10/28 02:55:21;;;;;;;10.85;4.93;;;;;;;17.63;81.67;101447.28;4948789;28;20050;-71
2021/10/28 02:57:48;;;;;;;16.10;6.35;;;;;;;17.63;81.63;101446.38;4948819;28;20113;-73
2021/10/28 03:00:16;;;;;;;10.50;5.80;;;;;;;17.69;81.65;101451.72;4948902;28;20058;-73
2021/10/28 03:02:43;;;;;;;10.23;5.40;;;;;;;17.73;81.67;101454.34;4948690;28;20043;-73
2021/10/28 03:05:12;;;;;;;11.18;5.30;;;;;;;17.75;81.76;101457.94;4948505;28;20046;-73
2021/10/28 03:07:40;;;;;;;12.40;6.07;;;;;;;17.69;81.88;101454.38;4948308;28;20055;-73
2021/10/28 03:10:10;;;;;;;14.98;5.85;;;;;;;17.69;82.16;101457.06;4948075;28;20501;-72
2021/10/28 03:12:41;;;;;;;10.38;5.55;;;;;;;17.72;82.24;101462.41;4948808;28;20119;-73
2021/10/28 03:15:11;;;;;;;19.20;7.18;;;;;;;17.67;82.42;101464.16;4966489;28;20039;-73
2021/10/28 03:17:50;;;;;;;11.88;6.82;;;;;;;17.64;82.70;101461.53;4951665;28;20436;-73
2021/10/28 03:26:00;;;;;;;10.73;6.25;;;;;;;17.64;82.50;101475.75;4939879;28;20055;-75
2021/10/28 03:28:28;;;;;;;10.57;6.43;;;;;;;17.67;82.47;101481.09;4952157;28;20044;-76
2021/10/28 03:30:55;;;;;;;11.27;6.00;;;;;;;17.72;82.35;101483.78;4951995;28;20045;-76
2021/10/28 03:33:24;;;;;;;14.48;5.75;;;;;;;17.73;82.36;101480.19;4951447;28;20035;-75
2021/10/28 03:35:53;;;;;;;13.40;6.38;;;;;;;17.76;82.29;101491.75;4952063;28;20055;-76
2021/10/28 03:38:23;;;;;;;14.27;6.75;;;;;;;17.73;82.40;101488.19;4951565;28;20039;-74
2021/10/28 03:41:31;;;;;;;11.88;6.32;;;;;;;17.74;82.30;101484.63;4951175;28;20129;-75
2021/10/28 03:47:15;;;;;;;14.57;6.47;;;;;;;17.67;82.58;101488.19;4953822;28;20096;-77
2021/10/28 03:58:29;;;;;;;16.85;6.43;;;;;;;17.64;82.21;101496.25;4951083;28;20066;-76
2021/10/28 04:17:51;;;;;;;12.57;6.70;;;;;;;17.67;81.73;101498.88;4950741;28;20425;-73
2021/10/28 04:31:20;;;;;;;;;;;;;;;17.48;81.71;101501.56;4950930;28;20139;-71
2021/10/28 04:33:47;;;;;;;12.88;7.50;;;;;;;17.49;81.75;101503.34;4950984;28;20298;-73
2021/10/28 04:36:14;;;;;;;14.35;6.97;;;;;;;17.47;81.55;101504.22;4950809;28;20051;-74
2021/10/28 04:38:42;;;;;;;15.00;6.50;;;;;;;17.42;81.49;101501.56;4950622;28;20051;-73
2021/10/28 04:41:11;;;;;;;13.13;6.75;;;;;;;17.40;81.47;101502.44;4951310;28;20054;-73
2021/10/28 04:43:38;;;;;;;14.57;8.65;;;;;;;17.38;81.39;101499.78;4950711;28;20098;-73
2021/10/28 04:46:05;;;;;;;13.85;6.93;;;;;;;17.36;81.34;101503.34;4950435;28;20058;-73
2021/10/28 04:48:33;;;;;;;13.38;6.63;;;;;;;17.39;81.15;101506.03;4949998;28;20031;-73
2021/10/28 04:51:00;;;;;;;13.65;7.03;;;;;;;17.39;80.96;101509.56;4950670;28;20048;-73
2021/10/28 04:53:29;;;;;;;15.60;7.55;;;;;;;17.36;80.97;101509.56;4950544;28;20062;-72
2021/10/28 04:55:57;;;;;;;14.40;7.78;;;;;;;17.37;80.98;101514.03;4953846;28;20188;-72
2021/10/28 04:58:26;;;;;;;17.48;8.57;;;;;;;17.38;81.14;101509.56;4996266;28;20048;-73
2021/10/28 05:00:53;;;;;;;16.05;8.00;;;;;;;17.37;81.25;101506.00;4996638;28;20129;-73
2021/10/28 05:03:21;;;;;;;15.98;7.75;;;;;;;17.38;81.19;101506.91;5035758;28;20040;-72
2021/10/28 05:05:48;;;;;;;16.00;7.88;;;;;;;17.40;81.19;101502.44;5049353;28;20052;-73
2021/10/28 05:08:16;;;;;;;12.73;7.75;;;;;;;17.43;81.27;101510.47;5047328;28;20045;-73
2021/10/28 05:10:43;;;;;;;13.68;8.02;;;;;;;17.43;81.31;101516.69;5012721;28;20486;-74
2021/10/28 05:13:13;;;;;;;14.07;7.53;;;;;;;17.47;81.35;101521.13;5034520;28;20054;-73
2021/10/28 05:15:48;;;;;;;14.73;7.70;;;;;;;17.51;81.27;101516.69;5041396;28;20060;-73
2021/10/28 05:18:15;;;;;;;10.32;6.95;;;;;;;17.50;81.55;101517.56;4950629;28;20161;-74
2021/10/28 05:20:44;;;;;;;13.02;7.95;;;;;;;17.57;81.87;101518.47;4950027;28;20071;-73
2021/10/28 05:23:12;;;;;;;18.70;8.90;;;;;;;17.63;82.18;101516.72;4949898;28;20043;-73
2021/10/28 05:25:40;;;;;;;16.17;7.55;;;;;;;17.69;82.53;101519.38;4950262;28;20035;-73
2021/10/28 05:28:07;;;;;;;13.85;7.50;;;;;;;17.74;82.58;101519.34;4949141;28;20040;-73
2021/10/28 05:30:35;;;;;;;15.45;7.18;;;;;;;17.78;82.54;101521.16;4989684;28;20060;-73
2021/10/28 05:33:05;;;;;;;13.07;7.57;;;;;;;17.81;82.60;101510.44;4957469;28;20046;-73
2021/10/28 05:35:32;;;;;;;14.85;7.65;;;;;;;17.87;82.76;101521.09;5020442;28;20043;-74
2021/10/28 05:38:00;;;;;;;15.23;8.00;;;;;;;18.01;83.12;101524.63;5013754;28;20499;-72
2021/10/28 05:40:27;;;;;;;11.43;6.57;;;;;;;18.09;83.43;101525.50;5050443;28;20033;-73
2021/10/28 05:42:55;;;;;;;15.68;8.05;;;;;;;18.21;83.49;101525.47;5050972;28;20041;-77
2021/10/28 05:45:23;;;;;;;12.63;7.60;;;;;;;18.33;84.27;101529.88;5049669;28;20401;-72
2021/10/28 05:47:50;;;;;;;16.00;9.50;;;;;;;18.49;85.01;101531.59;5000693;28;20076;-71
2021/10/28 05:50:21;;;;;;;19.42;11.13;;;;;;;18.66;85.68;101529.75;5040338;28;20052;-73
2021/10/28 05:52:51;;;;;;;20.35;10.95;;;;;;;18.84;85.93;101526.09;5000286;28;20041;-73
2021/10/28 05:55:20;;;;;;;19.80;11.13;;;;;;;19.05;85.66;101533.97;4967866;28;20088;-74
2021/10/28 05:57:48;;;;;;;23.40;10.75;;;;;;;19.15;85.15;101525.91;4934176;28;20382;-73
2021/10/28 06:00:18;;;;;;;19.42;10.45;;;;;;;19.29;84.68;101532.03;4946219;28;20508;-73
2021/10/28 06:02:45;;;;;;;17.25;10.23;;;;;;;19.36;84.46;101536.44;4966504;28;20124;-73
2021/10/28 06:05:13;;;;;;;19.38;10.50;;;;;;;19.36;83.69;101536.44;5027388;28;20037;-74
2021/10/28 06:07:42;;;;;;;21.45;9.77;;;;;;;19.46;83.14;101540.84;4949788;28;20062;-74
2021/10/28 06:10:11;;;;;;;17.30;6.78;;;;;;;19.54;82.92;101533.63;4947616;28;20046;-73
2021/10/28 06:12:40;;;;;;;13.02;7.30;;;;;;;19.59;82.36;101529.13;4948741;28;20130;-73
2021/10/28 06:15:10;;;;;;;18.70;7.68;;;;;;;19.62;81.23;101534.47;4949165;28;20031;-73
2021/10/28 06:17:44;;;;;;;12.63;6.78;;;;;;;19.67;80.62;101537.09;4948093;28;20420;-73
2021/10/28 06:20:12;;;;;;;20.30;7.28;;;;;;;19.67;80.07;101535.31;4930769;28;20416;-73
2021/10/28 06:22:41;;;;;;;12.15;7.00;;;;;;;19.60;78.54;101533.59;4947875;28;20497;-73
2021/10/28 06:25:09;;;;;;;14.00;7.30;;;;;;;19.55;77.13;101538.09;4948079;28;20043;-73
2021/10/28 06:27:36;;;;;;;12.25;6.97;;;;;;;19.53;76.29;101542.56;4948306;28;20046;-74
2021/10/28 06:30:04;;;;;;;16.00;7.10;;;;;;;19.72;76.26;101544.19;4945172;28;20211;-74
2021/10/28 06:32:32;;;;;;;16.08;8.23;;;;;;;19.86;76.33;101534.22;4947676;28;20046;-75
2021/10/28 06:35:03;;;;;;;15.27;7.28;;;;;;;19.95;76.44;101556.47;4930947;28;20459;-75
2021/10/28 06:37:31;;;;;;;13.25;6.75;;;;;;;19.88;75.42;101553.88;4948815;28;20126;-75
2021/10/28 06:40:00;;;;;;;13.38;6.30;;;;;;;19.90;74.82;101551.16;4949051;28;20050;-74
2021/10/28 06:42:27;;;;;;;14.15;6.57;;;;;;;19.99;74.07;101544.81;4948860;28;20063;-74
2021/10/28 06:44:54;;;;;;;14.68;6.75;;;;;;;20.05;73.53;101553.69;4949303;28;20405;-74
2021/10/28 06:47:22;;;;;;;12.88;6.45;;;;;;;20.06;72.84;101549.22;4949450;28;20047;-73
2021/10/28 06:49:49;;;;;;;14.18;5.90;;;;;;;20.17;72.89;101566.06;4952818;28;20031;-74
2021/10/28 06:52:17;;;;;;;13.85;6.72;;;;;;;20.35;72.73;101562.34;4952978;28;20050;-74
2021/10/28 06:54:46;;;;;;;11.88;6.38;;;;;;;20.52;72.79;101563.00;4952364;28;20093;-74
2021/10/28 07:02:45;;;;;;;9.73;4.97;;;;;;;20.71;71.68;101558.28;4952396;28;20043;-75
2021/10/28 07:05:13;;;;;;;10.13;6.13;;;;;;;20.81;71.39;101559.91;4952136;28;20070;-75
2021/10/28 07:07:41;;;;;;;12.25;6.10;;;;;;;20.81;70.89;101547.38;4952540;28;20421;-75
2021/10/28 07:10:12;;;;;;;12.07;6.50;;;;;;;20.81;70.77;101552.75;4952476;28;20036;-74
2021/10/28 07:12:51;;;;;;;13.85;5.97;;;;;;;21.00;70.73;101548.91;4953074;28;20501;-75
2021/10/28 07:15:23;;;;;;;12.07;6.07;;;;;;;21.22;70.43;101551.31;4952566;28;20039;-75
2021/10/28 07:18:16;;;;;;;17.90;5.60;;;;;;;21.45;70.35;101546.47;4952761;28;20495;-75
2021/10/28 07:21:05;;;;;;;14.85;5.78;;;;;;;21.38;69.64;101548.38;4949910;28;20046;-75
2021/10/28 07:26:41;;;;;;;14.10;6.70;;;;;;;21.15;67.95;101552.28;4953126;28;20040;-75
2021/10/28 07:32:24;;;;;;;11.75;5.72;;;;;;;21.43;68.82;101550.97;4952195;28;20437;-74
2021/10/28 08:17:13;;;;;;;18.55;7.60;;;;;;;21.77;67.14;101557.56;4950862;28;20110;-74
2021/10/28 08:19:48;;;;;;;17.17;7.63;;;;;;;21.88;66.46;101565.41;4950248;28;20039;-75
2021/10/28 08:22:20;;;;;;;19.17;7.63;;;;;;;22.02;66.00;101560.69;4950956;28;20039;-75
2021/10/28 08:30:25;;;;;;;15.02;7.60;;;;;;;22.16;64.50;101560.44;4951475;28;20533;-75
2021/10/28 08:32:52;;;;;;;16.92;8.00;;;;;;;22.32;64.27;101556.53;4949752;28;20031;-70
2021/10/28 08:35:21;;;;;;;13.80;7.10;;;;;;;22.36;63.78;101557.34;4950983;28;20502;-74
2021/10/28 08:37:53;;;;;;;18.00;7.68;;;;;;;22.28;63.21;101560.19;4949406;28;20044;-75
2021/10/28 08:40:21;;;;;;;17.40;7.68;;;;;;;22.05;62.67;101563.34;4950425;28;20050;-75
2021/10/28 08:42:49;;;;;;;17.73;8.68;;;;;;;21.95;62.57;101559.00;4950611;28;20039;-74
2021/10/28 08:45:18;;;;;;;17.50;7.28;;;;;;;21.80;63.07;101560.16;4950184;28;20079;-75
2021/10/28 08:47:50;;;;;;;14.65;8.05;;;;;;;21.94;63.09;101564.41;4950207;28;20035;-75
2021/10/28 08:50:24;;;;;;;16.52;7.97;;;;;;;22.03;63.52;101554.41;4951538;28;20074;-75
2021/10/28 08:55:35;;;;;;;19.25;9.10;;;;;;;22.04;62.70;101550.81;4927815;28;20047;-74
2021/10/28 09:26:21;;;;;;;16.08;8.65;;;;;;;22.19;60.86;101528.97;4949651;28;20063;-74
2021/10/28 09:28:59;;;;;;;18.42;8.45;;;;;;;22.08;60.91;101532.81;4950311;28;20043;-75
2021/10/28 09:31:31;;;;;;;20.35;8.18;;;;;;;22.02;60.97;101530.22;4950274;28;20048;-74
2021/10/28 09:34:09;;;;;;;20.40;9.32;;;;;;;21.95;60.97;101534.81;4949157;28;20039;-75
2021/10/28 09:45:29;;;;;;;15.57;7.25;;;;;;;22.06;61.61;101524.75;4948995;28;20059;-74
2021/10/28 09:48:07;;;;;;;16.90;8.38;;;;;;;21.90;62.12;101533.13;4950013;28;20047;-74
2021/10/28 09:50:53;;;;;;;16.15;8.23;;;;;;;21.85;62.22;101539.47;4947741;28;20051;-74
2021/10/28 09:53:31;;;;;;;20.83;9.05;;;;;;;21.80;62.58;101527.91;4950666;28;20057;-74
2021/10/28 09:58:45;;;;;;;18.02;9.38;;;;;;;22.01;61.79;101521.28;4949712;28;20047;-75
2021/10/28 10:01:34;;;;;;;15.88;8.43;;;;;;;22.20;61.51;101525.38;4950107;28;20039;-75
2021/10/28 10:04:05;;;;;;;15.75;8.07;;;;;;;22.33;61.64;101522.44;4949670;28;20043;-74
2021/10/28 10:06:37;;;;;;;14.18;8.23;;;;;;;22.47;61.50;101525.72;4949546;28;20113;-74
2021/10/28 10:09:05;;;;;;;18.13;8.18;;;;;;;22.43;61.38;101507.88;4930550;29;20063;-75
2021/10/28 10:11:34;;;;;;;13.98;7.70;;;;;;;22.35;61.08;101517.91;4927161;28;20055;-74
2021/10/28 10:14:04;;;;;;;14.57;7.95;;;;;;;22.40;60.63;101502.56;4949885;28;20042;-74
2021/10/28 10:16:32;;;;;;;17.73;7.85;;;;;;;22.34;60.23;101505.38;4945529;28;20042;-75
2021/10/28 10:19:01;;;;;;;21.02;8.40;;;;;;;22.33;60.13;101509.88;4948687;28;20031;-74
2021/10/28 10:21:35;;;;;;;20.50;9.35;;;;;;;22.40;60.17;101503.44;4946723;28;20050;-74
2021/10/28 10:24:25;;;;;;;17.80;7.75;;;;;;;22.53;60.30;101490.59;4944075;28;20055;-75
2021/10/28 10:30:05;;;;;;;18.77;8.23;;;;;;;22.29;60.47;101491.13;4946212;28;20248;-73
2021/10/28 12:44:06;;;;;;;18.13;8.98;;;;;;;21.72;60.96;101422.34;4951075;28;20055;-75
2021/10/28 13:34:55;;;;;;;17.90;8.32;;;;;;;22.58;58.98;101400.75;4947858;28;20043;-75
2021/10/28 13:48:20;;;;;;;16.55;8.50;;;;;;;22.75;59.12;101400.41;4958246;28;20078;-75
2021/10/28 13:51:07;;;;;;;17.50;9.57;;;;;;;22.54;59.51;101401.75;4967282;28;20393;-75
2021/10/28 13:59:30;;;;;;;18.35;9.45;;;;;;;22.09;60.33;101413.53;4928782;28;20127;-75
2021/10/28 14:38:25;;;;;;;16.48;9.15;;;;;;;-143.60;100.00;57988.34;5081346;28;20462;-73
2021/10/28 15:27:47;;;;;;;21.02;9.07;;;;;;;-143.60;100.00;57988.34;5061725;28;20418;-75
2021/10/28 15:30:17;;;;;;;17.35;8.82;;;;;;;-143.60;100.00;57988.34;5066297;28;20179;-75
2021/10/28 15:35:31;;;;;;;22.75;9.95;;;;;;;-143.60;100.00;57988.34;5011483;28;20051;-72
2021/10/28 15:38:13;;;;;;;17.25;9.30;;;;;;;-143.60;100.00;57988.34;5086038;28;20086;-75
2021/10/28 15:40:53;;;;;;;20.25;9.30;;;;;;;-143.60;100.00;57988.34;5082473;28;20120;-75
2021/10/28 16:00:07;;;;;;;17.30;10.70;;;;;;;-143.60;100.00;57988.34;5055929;28;20052;-75
2021/10/28 16:21:52;;;;;;;21.17;12.07;;;;;;;-143.60;100.00;57988.34;5046914;28;20063;-77
2021/10/28 16:24:20;;;;;;;20.33;11.93;;;;;;;-143.60;100.00;57988.34;5050799;28;20044;-76
2021/10/28 16:26:50;;;;;;;28.83;14.05;;;;;;;-143.60;100.00;57988.34;5050096;28;20048;-76
2021/10/28 16:29:18;;;;;;;23.40;13.23;;;;;;;-143.60;100.00;57988.34;5051935;28;20114;-76
2021/10/28 16:31:46;;;;;;;22.40;12.05;;;;;;;-143.60;100.00;57988.34;5040142;28;20042;-77
2021/10/28 16:34:15;;;;;;;23.08;12.63;;;;;;;-143.60;100.00;57988.34;5030023;28;20091;-76
2021/10/28 16:36:44;;;;;;;21.42;12.40;;;;;;;-143.60;100.00;57988.34;5024868;28;20033;-76
2021/10/28 16:39:13;;;;;;;25.58;13.32;;;;;;;-143.60;100.00;57988.34;5031271;28;20489;-75
2021/10/28 16:41:46;;;;;;;26.10;14.90;;;;;;;-143.60;100.00;57988.34;5023675;28;20049;-76
2021/10/28 16:44:17;;;;;;;22.83;15.40;;;;;;;-143.60;100.00;57988.34;5013147;28;20042;-76
2021/10/28 16:46:46;;;;;;;28.45;19.77;;;;;;;-143.60;100.00;57988.34;5027069;28;20230;-77
2021/10/28 16:49:14;;;;;;;39.83;25.70;;;;;;;-143.60;100.00;57988.34;5038625;28;20094;-76
2021/10/28 16:51:43;;;;;;;25.05;17.38;;;;;;;-143.60;100.00;57988.34;5030511;28;20041;-76
2021/10/28 16:54:10;;;;;;;106.07;43.20;;;;;;;-143.60;100.00;57988.34;5031011;28;20044;-76
2021/10/28 16:56:38;;;;;;;61.22;28.05;;;;;;;-143.60;100.00;57988.34;5030788;28;20048;-76
2021/10/28 16:59:06;;;;;;;134.00;52.85;;;;;;;-143.60;100.00;57988.34;5029439;28;20056;-75
2021/10/28 17:01:35;;;;;;;26.25;16.30;;;;;;;-143.60;100.00;57988.34;5035409;28;20049;-75
2021/10/28 17:04:04;;;;;;;27.98;15.57;;;;;;;-143.60;100.00;57988.34;5039257;28;20053;-75
2021/10/28 17:06:32;;;;;;;25.17;14.55;;;;;;;-143.60;100.00;57988.34;5025813;28;20046;-76
2021/10/28 17:09:06;;;;;;;34.47;18.55;;;;;;;-143.60;100.00;57988.34;5030270;28;20038;-80
2021/10/28 17:11:33;;;;;;;55.85;25.13;;;;;;;-143.60;100.00;57988.34;5029480;28;20484;-79
2021/10/28 17:14:02;;;;;;;122.38;48.10;;;;;;;-143.60;100.00;57988.34;5030041;28;20585;-78
2021/10/28 17:16:30;;;;;;;47.67;23.58;;;;;;;-143.60;100.00;57988.34;5028867;28;20397;-78
2021/10/28 17:19:00;;;;;;;39.42;22.98;;;;;;;-143.60;100.00;57988.34;5017397;28;20038;-77
2021/10/28 17:21:28;;;;;;;48.63;24.58;;;;;;;-143.60;100.00;57988.34;5021035;28;20396;-77
2021/10/28 17:24:01;;;;;;;48.60;23.20;;;;;;;-143.60;100.00;57988.34;5027154;28;20542;-81
2021/10/28 17:26:29;;;;;;;26.08;13.85;;;;;;;-143.60;100.00;57988.34;5033945;28;20497;-75
2021/10/28 17:29:01;;;;;;;212.20;78.40;;;;;;;-143.60;100.00;57988.34;5031597;28;20448;-71
2021/10/28 17:31:32;;;;;;;83.65;33.25;;;;;;;-143.60;100.00;57988.34;5041217;28;20037;-76
2021/10/28 17:34:02;;;;;;;99.20;39.70;;;;;;;-143.60;100.00;57988.34;5039227;28;20040;-76
2021/10/28 17:36:30;;;;;;;31.83;16.50;;;;;;;-143.60;100.00;57988.34;5065287;28;20028;-74
2021/10/28 17:38:58;;;;;;;126.95;43.85;;;;;;;-143.60;100.00;57988.34;5056254;28;20041;-73
2021/10/28 17:41:26;;;;;;;38.80;19.90;;;;;;;-143.60;100.00;57988.34;5040063;28;20041;-75
2021/10/28 17:43:56;;;;;;;143.02;54.53;;;;;;;-143.60;100.00;57988.34;5058942;28;20048;-75
2021/10/28 17:46:26;;;;;;;23.23;13.00;;;;;;;-143.60;100.00;57988.34;5067468;28;20044;-74
2021/10/28 17:48:55;;;;;;;190.00;64.25;;;;;;;-143.60;100.00;57988.34;5063999;28;20036;-75
2021/10/28 17:51:27;;;;;;;77.03;29.92;;;;;;;-143.60;100.00;57988.34;5054549;28;20531;-74
2021/10/28 17:53:55;;;;;;;52.33;24.63;;;;;;;-143.60;100.00;57988.34;5062325;28;20044;-74
2021/10/28 17:56:22;;;;;;;35.67;25.15;;;;;;;-143.60;100.00;57988.34;5070142;28;20040;-74
2021/10/28 17:58:50;;;;;;;50.17;32.15;;;;;;;-143.60;100.00;57988.34;5066732;28;20040;-74
2021/10/28 18:01:21;;;;;;;29.83;22.25;;;;;;;-143.60;100.00;57988.34;5062981;28;20041;-74
2021/10/28 18:03:49;;;;;;;34.10;19.25;;;;;;;-143.60;100.00;57988.34;5064983;28;20064;-73
2021/10/28 18:06:16;;;;;;;26.33;17.40;;;;;;;-143.60;100.00;57988.34;5068596;28;20041;-74
2021/10/28 18:08:46;;;;;;;25.50;15.93;;;;;;;-143.60;100.00;57988.34;5065395;28;20046;-71
2021/10/28 18:11:14;;;;;;;19.80;11.68;;;;;;;-143.60;100.00;57988.34;5066459;28;20037;-71
2021/10/28 18:13:41;;;;;;;21.00;11.85;;;;;;;-143.60;100.00;57988.34;5067755;28;20047;-71
2021/10/28 18:16:09;;;;;;;19.98;11.95;;;;;;;-143.60;100.00;57988.34;5069844;28;20033;-72
2021/10/28 18:18:37;;;;;;;18.73;12.85;;;;;;;-143.60;100.00;57988.34;5064683;28;20040;-72
2021/10/28 18:21:05;;;;;;;22.45;14.75;;;;;;;-143.60;100.00;57988.34;5064983;28;20047;-71
2021/10/28 18:23:38;;;;;;;22.63;13.77;;;;;;;-143.60;100.00;57988.34;5063626;28;20052;-72
2021/10/28 18:26:07;;;;;;;21.45;13.25;;;;;;;-143.60;100.00;57988.34;5063544;28;20078;-74
2021/10/28 18:28:34;;;;;;;26.25;16.95;;;;;;;-143.60;100.00;57988.34;5069097;28;20047;-73
2021/10/28 18:31:02;;;;;;;26.08;17.63;;;;;;;-143.60;100.00;57988.34;5063838;28;20044;-73
2021/10/28 18:33:30;;;;;;;20.80;13.13;;;;;;;-143.60;100.00;57988.34;5065186;28;20373;-73
2021/10/28 18:35:57;;;;;;;23.38;14.57;;;;;;;-143.60;100.00;57988.34;5066822;28;20049;-68
2021/10/28 18:38:26;;;;;;;20.60;13.23;;;;;;;-143.60;100.00;57988.34;5067632;28;20049;-72
2021/10/28 18:40:53;;;;;;;20.30;11.25;;;;;;;-143.60;100.00;57988.34;5062853;28;20484;-73
2021/10/28 18:43:22;;;;;;;19.70;11.23;;;;;;;-143.60;100.00;57988.34;5066036;28;20043;-73
2021/10/28 18:45:50;;;;;;;23.90;13.25;;;;;;;-143.60;100.00;57988.34;5068198;28;20041;-73
2021/10/28 18:48:17;;;;;;;23.20;11.48;;;;;;;-143.60;100.00;57988.34;5068024;28;20052;-73
2021/10/28 18:50:45;;;;;;;21.73;11.50;;;;;;;-143.60;100.00;57988.34;5066323;28;20040;-73
2021/10/28 18:53:12;;;;;;;21.13;11.43;;;;;;;-143.60;100.00;57988.34;5065581;28;20045;-73
2021/10/28 18:55:40;;;;;;;20.20;11.25;;;;;;;-143.60;100.00;57988.34;5067291;28;20383;-73
2021/10/28 18:58:07;;;;;;;23.98;12.52;;;;;;;-143.60;100.00;57988.34;5064891;28;20098;-73
2021/10/28 19:00:37;;;;;;;23.00;12.57;;;;;;;-143.60;100.00;57988.34;5064482;28;20041;-73
2021/10/28 19:03:05;;;;;;;24.95;12.85;;;;;;;-143.60;100.00;57988.34;5067889;28;20142;-74
2021/10/28 19:05:34;;;;;;;22.73;13.88;;;;;;;-143.60;100.00;57988.34;5068184;28;20041;-73
2021/10/28 19:08:01;;;;;;;21.02;12.65;;;;;;;-143.60;100.00;57988.34;5067542;28;20041;-72
2021/10/28 19:10:30;;;;;;;27.08;16.10;;;;;;;-143.60;100.00;57988.34;5062159;28;20040;-72
2021/10/28 19:12:59;;;;;;;21.95;14.15;;;;;;;-143.60;100.00;57988.34;5062898;28;20494;-71
2021/10/28 19:15:26;;;;;;;24.50;13.38;;;;;;;-143.60;100.00;57988.34;5064360;28;20787;-73
2021/10/28 19:17:56;;;;;;;22.48;12.57;;;;;;;-143.60;100.00;57988.34;5059710;28;20063;-74
2021/10/28 19:20:26;;;;;;;18.23;10.90;;;;;;;-143.60;100.00;57988.34;5053563;28;20099;-74
2021/10/28 19:22:55;;;;;;;22.55;11.93;;;;;;;-143.60;100.00;57988.34;5043698;28;20115;-73